KPDX

Portland International Airport

Airport
ICAO code
KPDX
Summary
ICAO Region
NAM
ICAO Territory
Location

Portland, Oregon,

Coordinates
45° 35' 17" N , 122° 35' 47" W
KCC
Csb
Airport BS
Bird Strike
Metar
Observation
KPDX 110453Z 33004KT 10SM CLR 21/14 A3011 RMK AO2 SLP196 T02060144
Station
Portland, Portland International Airport
Date/Time
2022-08-11 04:53:00
Wind direction
330°
Wind speed
04 kts
Lowest cloud amount
n/a
Temperature
20.6°C
Dew point
14.4°C
Humidity
67%
Weather condition
n/a

Description

Portland International Airport is located on the south side of the Columbia River within the current city limits of Portland in Multnomah County, six miles by air northeast of downtown Portland. Portland International Airport is often referred to by its IATA airport code, PDX.

Climatology

Oceanic/Dry-summer subtropical ”Mediterranean" climate (Köppen climate classification Csb) - characterized by warm, dry summers and mild winters.

Runways

Designator Length Width Surface Rops
3/21 2134 46 ASP Yes/Yes
10L/28R 2438 46 ASP Yes/Yes
10R/28L 3353 46 ASP Yes/Yes

Airport map

Aerial View

SKYbrary Partners:

Safety knowledge contributed by: